Terminal Aerodrome Forecast
Issued by NWS

Home | Current Version | Previous Version | Text Only | Print | Product List | Glossary On
Versions: 1 2 3 4 5 6 7 8 9 10 11 12 13 14
000
FTUS44 KLUB 051722
TAFCDS
TAF
KCDS 051722Z 0518/0618 19012G18KT P6SM SCT050
     FM060300 17011KT P6SM FEW020 BKN180=

USA.gov is the U.S. government's official web portal to all federal, state and local government web resources and services.